Time;durP1;ratioP1;P1;durP2;ratioP2;P2;SDS_P1;SDS_P2;PMS_P1;PMS_P2;Temp;Humidity;BMP_temperature;BMP_pressure;BME280_temperature;BME280_humidity;BME280_pressure;Samples;Min_cycle;Max_cycle;Signal;HPM_P1;HPM_P2
2024/04/06 00:01:56;;;;;;;6.90;1.58;;;;;;;16.45;72.34;101122.47;5069967;28;20059;-75
2024/04/06 00:05:00;;;;;;;5.72;1.92;;;;;;;16.62;71.60;101118.94;5093831;28;20043;-77
2024/04/06 00:08:05;;;;;;;6.90;1.80;;;;;;;16.44;71.88;101118.91;5093600;28;20051;-75
2024/04/06 00:11:10;;;;;;;4.50;1.60;;;;;;;16.38;72.34;101116.81;5093784;28;20110;-75
2024/04/06 00:14:18;;;;;;;4.53;1.88;;;;;;;16.23;72.93;101119.19;5081416;28;20039;-76
2024/04/06 00:17:23;;;;;;;4.03;1.45;;;;;;;16.12;73.00;101119.38;5093776;28;20062;-76
2024/04/06 00:20:28;;;;;;;6.80;1.73;;;;;;;16.16;72.56;101119.94;5093765;28;20047;-76
2024/04/06 00:23:33;;;;;;;4.03;1.27;;;;;;;16.16;72.53;101125.38;5093899;28;20371;-76
2024/04/06 00:26:38;;;;;;;6.03;2.45;;;;;;;16.23;73.14;101124.59;5093979;28;20047;-76
2024/04/06 00:29:42;;;;;;;3.00;1.40;;;;;;;16.30;72.87;101130.25;5080763;28;20410;-76
2024/04/06 00:32:47;;;;;;;7.03;1.50;;;;;;;16.29;72.69;101121.28;5093349;28;20513;-76
2024/04/06 00:35:51;;;;;;;5.78;1.55;;;;;;;16.21;73.44;101125.75;5093680;28;20154;-77
2024/04/06 00:38:55;;;;;;;3.17;1.35;;;;;;;16.05;74.22;101122.84;5069348;28;20055;-75
2024/04/06 00:42:00;;;;;;;4.93;1.45;;;;;;;16.03;74.07;101117.59;5093384;28;20055;-74
2024/04/06 00:45:05;;;;;;;4.68;1.75;;;;;;;15.86;74.74;101121.09;5081106;28;20059;-74
2024/04/06 00:48:11;;;;;;;4.68;1.65;;;;;;;16.01;74.53;101116.91;5081036;28;20059;-74
2024/04/06 00:51:15;;;;;;;7.00;1.95;;;;;;;15.98;74.45;101117.19;5093220;28;20410;-76
2024/04/06 00:54:20;;;;;;;5.15;2.28;;;;;;;15.74;75.60;101121.44;5093411;28;20043;-76
2024/04/06 00:57:25;;;;;;;5.00;2.10;;;;;;;15.92;75.00;101119.66;5092996;28;20399;-76
2024/04/06 01:00:29;;;;;;;5.43;1.77;;;;;;;15.85;75.03;101126.69;5093447;28;20127;-76
2024/04/06 01:03:34;;;;;;;3.08;1.90;;;;;;;15.84;74.84;101131.25;5080914;28;20055;-75
2024/04/06 01:06:39;;;;;;;4.45;2.10;;;;;;;15.56;75.28;101124.06;5093319;28;20055;-76
2024/04/06 01:09:44;;;;;;;6.63;2.35;;;;;;;15.40;75.31;101129.25;5093206;28;20047;-76
2024/04/06 01:12:48;;;;;;;5.18;1.85;;;;;;;15.59;74.28;101124.66;5095279;28;20051;-76
2024/04/06 01:15:53;;;;;;;5.28;1.63;;;;;;;15.68;74.10;101125.59;5097126;28;20066;-76
2024/04/06 01:18:58;;;;;;;3.88;1.42;;;;;;;15.53;74.56;101119.81;5097014;28;20066;-76
2024/04/06 01:22:03;;;;;;;4.70;1.70;;;;;;;15.19;74.87;101112.31;5084625;28;20047;-76
2024/04/06 01:25:08;;;;;;;3.25;1.45;;;;;;;15.01;74.77;101119.50;5084464;28;20055;-76
2024/04/06 01:28:13;;;;;;;7.88;1.58;;;;;;;14.81;74.26;101111.38;5096769;28;20047;-75
2024/04/06 01:31:17;;;;;;;4.68;1.20;;;;;;;14.87;74.14;101108.13;5084425;28;20058;-76
2024/04/06 01:34:22;;;;;;;2.70;1.38;;;;;;;14.91;73.82;101097.88;5084374;28;20387;-76
2024/04/06 01:37:27;;;;;;;9.13;1.35;;;;;;;14.63;73.92;101102.31;5084191;28;20043;-76
2024/04/06 01:40:32;;;;;;;3.03;1.00;;;;;;;14.92;72.91;101100.44;5096524;28;20387;-77
2024/04/06 01:43:37;;;;;;;3.22;1.00;;;;;;;15.10;72.12;101088.88;5096577;28;20043;-74
2024/04/06 01:46:42;;;;;;;3.88;1.20;;;;;;;14.99;72.84;101098.84;5083830;28;20047;-75
2024/04/06 01:49:47;;;;;;;5.60;1.50;;;;;;;14.69;73.16;101099.00;5096221;28;20490;-76
2024/04/06 01:52:51;;;;;;;4.07;1.40;;;;;;;14.70;72.68;101098.03;5084039;28;20039;-76
2024/04/06 01:55:56;;;;;;;5.28;1.23;;;;;;;14.67;72.67;101095.59;5096126;28;20043;-76
2024/04/06 01:59:01;;;;;;;2.45;1.25;;;;;;;14.55;72.40;101093.19;5056045;28;20052;-77
2024/04/06 02:02:06;;;;;;;2.60;1.10;;;;;;;14.41;72.28;101102.59;5055950;28;20124;-76
2024/04/06 02:05:11;;;;;;;2.38;0.90;;;;;;;14.36;72.15;101096.75;5055979;28;20052;-76
2024/04/06 02:08:15;;;;;;;3.10;1.00;;;;;;;14.42;71.96;101115.06;5055978;28;20052;-76
2024/04/06 02:11:20;;;;;;;3.22;1.00;;;;;;;14.65;71.49;101104.84;5055337;28;20052;-74
2024/04/06 02:14:25;;;;;;;3.25;0.90;;;;;;;14.72;71.41;101109.53;5055990;28;20052;-76
2024/04/06 02:17:29;;;;;;;5.45;1.08;;;;;;;14.74;71.62;101125.63;5055663;28;20076;-74
2024/04/06 02:20:34;;;;;;;3.80;0.90;;;;;;;14.69;72.09;101126.03;5054862;28;20510;-74
2024/04/06 02:23:38;;;;;;;2.67;1.00;;;;;;;14.86;71.90;101119.91;5055917;28;20056;-76
2024/04/06 02:26:43;;;;;;;2.25;0.90;;;;;;;14.89;71.89;101114.22;5055404;28;20510;-76
2024/04/06 02:29:48;;;;;;;2.50;1.00;;;;;;;14.92;72.27;101119.34;5054253;28;20506;-74
2024/04/06 02:32:52;;;;;;;5.40;1.23;;;;;;;14.98;72.02;101112.53;5055426;28;20083;-77
2024/04/06 02:35:57;;;;;;;4.35;0.98;;;;;;;15.02;72.07;101121.19;5055364;28;20052;-77
2024/04/06 02:39:09;;;;;;;3.47;1.00;;;;;;;14.92;72.01;101123.91;5055144;28;20158;-75
2024/04/06 02:42:14;;;;;;;2.45;1.05;;;;;;;14.86;72.75;101119.91;5054985;28;20044;-75
2024/04/06 02:45:19;;;;;;;5.32;1.08;;;;;;;14.93;72.26;101115.66;5055022;28;20060;-75
2024/04/06 02:48:23;;;;;;;3.13;1.20;;;;;;;14.86;72.77;101119.91;5035080;28;20053;-75
2024/04/06 02:51:27;;;;;;;2.72;0.98;;;;;;;14.88;72.78;101128.75;5035106;28;20048;-74
2024/04/06 02:54:32;;;;;;;5.95;1.60;;;;;;;14.73;74.13;101121.22;5035353;28;20052;-75
2024/04/06 02:57:37;;;;;;;4.20;1.05;;;;;;;14.63;74.08;101133.88;5057974;28;20159;-75
2024/04/06 03:00:42;;;;;;;4.13;1.33;;;;;;;14.49;74.33;101137.00;5074476;28;20399;-76
2024/04/06 03:03:48;;;;;;;2.70;1.05;;;;;;;14.39;74.40;101142.38;5074605;28;20490;-76
2024/04/06 03:06:52;;;;;;;3.28;1.42;;;;;;;14.42;74.12;101136.69;5074661;28;20051;-76
2024/04/06 03:09:57;;;;;;;3.45;1.08;;;;;;;14.28;74.13;101142.47;5074560;28;20059;-76
2024/04/06 03:13:01;;;;;;;5.80;1.30;;;;;;;14.30;74.98;101138.66;5074201;28;20052;-76
2024/04/06 03:16:06;;;;;;;3.03;1.30;;;;;;;14.38;74.37;101137.97;5074512;28;20043;-75
2024/04/06 03:19:11;;;;;;;5.07;1.25;;;;;;;14.19;74.46;101136.06;5074264;28;20044;-75
2024/04/06 03:22:15;;;;;;;6.43;1.50;;;;;;;14.07;75.14;101139.84;5074301;28;20039;-76
2024/04/06 03:25:20;;;;;;;5.20;1.40;;;;;;;14.17;75.00;101145.31;5074346;28;20039;-76
2024/04/06 03:28:24;;;;;;;7.85;1.58;;;;;;;14.18;74.63;101149.69;5061968;28;20048;-74
2024/04/06 03:31:29;;;;;;;3.47;1.33;;;;;;;14.18;74.63;101147.84;5073096;28;20446;-74
2024/04/06 03:34:33;;;;;;;3.53;1.40;;;;;;;14.10;74.50;101144.97;5073618;28;20043;-75
2024/04/06 03:37:38;;;;;;;5.00;1.02;;;;;;;14.14;75.18;101149.13;5074108;28;20044;-74
2024/04/06 03:40:42;;;;;;;4.90;1.20;;;;;;;14.24;74.71;101149.16;5074011;28;20056;-73
2024/04/06 03:43:46;;;;;;;3.10;1.38;;;;;;;14.36;74.19;101139.97;5061631;28;20055;-74
2024/04/06 03:46:52;;;;;;;5.78;1.17;;;;;;;14.34;74.38;101142.78;5061391;28;20376;-75
2024/04/06 03:49:57;;;;;;;4.60;1.10;;;;;;;14.37;74.48;101152.47;5061587;28;20056;-74
2024/04/06 03:53:01;;;;;;;4.53;1.33;;;;;;;14.33;75.17;101141.09;5073580;28;20051;-76
2024/04/06 03:56:06;;;;;;;4.07;1.27;;;;;;;14.16;74.71;101147.13;5073803;28;20056;-74
2024/04/06 03:59:10;;;;;;;4.97;1.48;;;;;;;13.95;74.87;101153.63;5033835;28;20376;-74
2024/04/06 04:02:16;;;;;;;6.78;1.48;;;;;;;13.74;74.76;101150.09;5033822;28;20472;-76
2024/04/06 04:05:20;;;;;;;2.45;1.00;;;;;;;13.55;75.48;101151.72;5033277;28;20405;-76
2024/04/06 04:08:25;;;;;;;4.72;1.80;;;;;;;13.45;75.56;101144.59;5033849;28;20410;-76
2024/04/06 04:11:29;;;;;;;3.67;1.10;;;;;;;13.57;75.01;101155.16;5033792;28;20057;-76
2024/04/06 04:14:34;;;;;;;3.38;1.40;;;;;;;13.47;74.94;101145.28;5032422;28;20060;-75
2024/04/06 04:17:39;;;;;;;5.22;1.35;;;;;;;13.28;75.81;101154.09;5033281;28;20483;-76
2024/04/06 04:20:44;;;;;;;3.55;1.10;;;;;;;13.23;75.63;101148.28;5033478;28;20056;-75
2024/04/06 04:23:48;;;;;;;7.25;1.25;;;;;;;13.24;74.92;101155.38;5033552;28;20479;-75
2024/04/06 04:26:52;;;;;;;3.30;1.25;;;;;;;12.88;77.22;101150.41;5032692;28;20064;-76
2024/04/06 04:29:57;;;;;;;5.82;1.10;;;;;;;13.02;76.58;101159.03;5032464;28;20048;-75
2024/04/06 04:33:02;;;;;;;6.85;1.27;;;;;;;12.92;76.52;101158.09;5033127;28;20064;-76
2024/04/06 04:36:08;;;;;;;6.20;1.15;;;;;;;12.99;76.82;101150.34;5033314;28;20049;-76
2024/04/06 04:39:13;;;;;;;3.22;1.10;;;;;;;13.29;75.46;101149.56;5033123;28;20072;-76
2024/04/06 04:42:17;;;;;;;5.50;1.42;;;;;;;13.17;76.02;101150.63;5032479;28;20393;-76
2024/04/06 04:45:22;;;;;;;2.95;1.27;;;;;;;12.88;77.31;101156.66;5021159;28;20045;-76
2024/04/06 04:48:50;;;;;;;3.50;1.70;;;;;;;12.86;77.65;101160.47;5035847;28;20464;-75
2024/04/06 04:51:55;;;;;;;7.25;1.52;;;;;;;12.98;77.24;101162.13;5036377;28;20048;-76
2024/04/06 04:54:59;;;;;;;2.15;1.08;;;;;;;13.06;77.53;101167.72;5036388;28;20060;-76
2024/04/06 04:58:04;;;;;;;3.90;1.20;;;;;;;13.26;76.41;101176.81;5066608;28;20056;-76
2024/04/06 05:01:08;;;;;;;3.58;1.50;;;;;;;13.39;76.01;101180.16;5063333;28;20048;-76
2024/04/06 05:04:13;;;;;;;7.68;1.38;;;;;;;12.98;77.17;101173.75;5063078;28;20056;-76
2024/04/06 05:07:19;;;;;;;6.80;1.38;;;;;;;13.30;76.38;101186.34;5075497;28;20056;-76
2024/04/06 05:10:23;;;;;;;4.05;1.08;;;;;;;13.60;75.59;101191.78;5063200;28;20474;-76
2024/04/06 05:13:28;;;;;;;3.70;1.52;;;;;;;14.30;72.98;101191.78;5075444;28;20056;-76
2024/04/06 05:16:32;;;;;;;3.30;1.10;;;;;;;14.39;71.56;101196.41;5075057;28;20487;-76
2024/04/06 05:19:36;;;;;;;4.20;1.65;;;;;;;14.27;71.90;101186.66;5062822;28;20052;-76
2024/04/06 05:22:41;;;;;;;2.85;1.50;;;;;;;14.34;71.47;101186.00;5075244;28;20051;-76
2024/04/06 05:25:46;;;;;;;5.45;1.40;;;;;;;14.47;70.49;101190.31;5062530;28;20419;-75
2024/04/06 05:28:51;;;;;;;4.60;1.13;;;;;;;15.10;69.20;101191.63;5075194;28;20059;-76
2024/04/06 05:31:57;;;;;;;2.60;1.13;;;;;;;15.79;65.78;101193.09;5075143;28;20376;-75
2024/04/06 05:35:01;;;;;;;4.72;1.45;;;;;;;16.21;64.37;101191.63;5075192;28;20142;-75
2024/04/06 05:38:05;;;;;;;3.80;1.35;;;;;;;16.10;63.86;101193.66;5075019;28;20056;-73
2024/04/06 05:41:10;;;;;;;8.57;2.05;;;;;;;16.11;63.55;101190.84;5062420;28;20396;-75
2024/04/06 05:44:15;;;;;;;7.28;2.25;;;;;;;16.03;64.13;101198.84;5075101;28;20051;-74
2024/04/06 05:47:20;;;;;;;4.50;2.30;;;;;;;16.00;64.16;101191.00;5074749;28;20039;-75
2024/04/06 05:50:24;;;;;;;5.18;2.10;;;;;;;16.05;64.10;101202.25;5074921;28;20126;-75
2024/04/06 05:53:28;;;;;;;4.72;1.80;;;;;;;16.32;63.51;101211.41;5062309;28;20486;-73
2024/04/06 05:56:33;;;;;;;6.13;1.83;;;;;;;16.34;63.56;101206.69;5013594;28;1390697;-71
2024/04/06 05:59:37;;;;;;;6.32;2.08;;;;;;;15.88;64.63;101202.16;5075533;28;20044;-71
2024/04/06 06:02:42;;;;;;;6.13;2.10;;;;;;;16.27;63.41;101204.56;5075855;28;20055;-71
2024/04/06 06:05:47;;;;;;;4.90;2.08;;;;;;;16.28;63.20;101200.88;5075678;28;20056;-69
2024/04/06 06:08:53;;;;;;;4.75;2.15;;;;;;;16.41;63.42;101192.38;5063672;28;20055;-71
2024/04/06 06:11:57;;;;;;;5.97;1.88;;;;;;;17.17;60.82;101195.56;5075920;28;20039;-71
2024/04/06 06:15:03;;;;;;;5.45;1.70;;;;;;;17.27;60.34;101196.31;5075792;28;20048;-71
2024/04/06 06:18:08;;;;;;;4.30;1.70;;;;;;;17.17;62.12;101203.69;5075173;28;20048;-71
2024/04/06 06:21:12;;;;;;;3.60;1.60;;;;;;;17.46;60.60;101206.97;5075589;28;20043;-71
2024/04/06 06:24:33;;;;;;;6.03;1.90;;;;;;;17.81;59.56;101209.63;5075448;28;20047;-71
2024/04/06 06:27:38;;;;;;;3.65;1.30;;;;;;;18.06;58.82;101211.50;5063351;28;20071;-71
2024/04/06 06:30:42;;;;;;;7.80;1.65;;;;;;;18.07;58.72;101196.88;5075362;28;20067;-71
2024/04/06 06:33:47;;;;;;;3.70;1.50;;;;;;;18.55;57.48;101201.69;5075448;28;20056;-71
2024/04/06 06:36:52;;;;;;;3.60;1.40;;;;;;;18.35;58.42;101210.25;5075102;28;20063;-70
2024/04/06 06:39:58;;;;;;;3.55;1.13;;;;;;;17.89;63.42;101204.25;5075094;28;20056;-74
2024/04/06 06:43:03;;;;;;;6.05;1.27;;;;;;;18.00;62.73;101195.81;5062503;28;20380;-74
2024/04/06 06:46:08;;;;;;;5.80;1.75;;;;;;;17.83;63.72;101204.03;5074928;28;20127;-74
2024/04/06 06:49:12;;;;;;;6.22;1.75;;;;;;;18.10;63.60;101209.28;5074921;28;20368;-73
2024/04/06 06:52:17;;;;;;;6.93;1.90;;;;;;;17.88;63.58;101209.84;5052883;28;20053;-75
2024/04/06 06:55:22;;;;;;;5.22;2.03;;;;;;;18.00;64.79;101208.53;5041359;28;20431;-72
2024/04/06 06:58:26;;;;;;;9.10;3.17;;;;;;;18.73;65.77;101216.03;5040739;28;20148;-74
2024/04/06 07:01:30;;;;;;;10.98;4.60;;;;;;;18.28;64.39;101215.50;5052592;28;20048;-75
2024/04/06 07:04:36;;;;;;;7.55;3.75;;;;;;;18.64;64.58;101218.91;5052655;28;20192;-74
2024/04/06 07:07:40;;;;;;;13.32;4.90;;;;;;;18.27;63.40;101212.94;5052748;28;20048;-73
2024/04/06 07:10:45;;;;;;;13.48;6.20;;;;;;;17.96;64.35;101212.59;5051859;28;20583;-77
2024/04/06 07:13:50;;;;;;;16.02;7.38;;;;;;;18.77;61.74;101213.81;5052174;28;20538;-74
2024/04/06 07:16:54;;;;;;;17.00;7.07;;;;;;;19.00;61.75;101208.59;5052514;28;20148;-74
2024/04/06 07:19:58;;;;;;;17.60;7.85;;;;;;;19.54;61.66;101216.13;5052213;28;20439;-75
2024/04/06 07:23:03;;;;;;;16.20;7.22;;;;;;;20.20;60.36;101213.06;5052268;28;20052;-74
2024/04/06 07:26:09;;;;;;;18.95;8.20;;;;;;;21.62;54.77;101209.84;5051915;28;20547;-76
2024/04/06 07:29:15;;;;;;;20.40;7.97;;;;;;;22.99;50.76;101212.78;5063274;28;20047;-73
2024/04/06 07:32:19;;;;;;;19.58;9.35;;;;;;;24.17;47.29;101205.63;5073855;28;20067;-73
2024/04/06 07:35:24;;;;;;;21.25;8.27;;;;;;;25.26;43.16;101210.91;5061621;28;20040;-74
2024/04/06 07:38:28;;;;;;;17.45;8.70;;;;;;;26.19;41.58;101207.97;5073923;28;20111;-74
2024/04/06 07:41:33;;;;;;;15.20;6.50;;;;;;;27.10;39.50;101209.50;5059375;28;20056;-73
2024/04/06 07:44:37;;;;;;;12.73;6.13;;;;;;;28.13;36.67;101218.22;5071289;28;20047;-74
2024/04/06 07:47:42;;;;;;;11.95;4.72;;;;;;;28.59;35.95;101213.00;5071381;28;20048;-73
2024/04/06 07:50:47;;;;;;;13.10;4.70;;;;;;;30.01;34.17;101213.00;5071146;28;20043;-74
2024/04/06 07:53:51;;;;;;;10.00;4.50;;;;;;;30.32;32.65;101217.31;5071305;28;20052;-74
2024/04/06 07:56:56;;;;;;;9.50;4.47;;;;;;;31.11;31.79;101212.94;5072291;28;20047;-76
2024/04/06 08:00:01;;;;;;;9.48;4.10;;;;;;;31.41;31.19;101224.56;5073622;28;20051;-76
2024/04/06 08:03:09;;;;;;;8.60;3.42;;;;;;;31.54;30.56;101218.72;5074054;28;20063;-74
2024/04/06 08:06:17;;;;;;;8.15;3.25;;;;;;;32.20;29.72;101217.84;5073328;28;20086;-76
2024/04/06 08:09:21;;;;;;;8.68;3.88;;;;;;;32.19;29.40;101226.47;5073446;28;20056;-75
2024/04/06 08:12:27;;;;;;;10.13;3.53;;;;;;;31.89;30.53;101226.81;5073530;28;20055;-78
2024/04/06 08:15:31;;;;;;;9.20;3.85;;;;;;;31.90;30.29;101231.28;5061238;28;20051;-76
2024/04/06 08:18:36;;;;;;;8.23;4.05;;;;;;;31.25;30.72;101220.69;5073435;28;20055;-75
2024/04/06 08:21:41;;;;;;;8.13;3.25;;;;;;;31.20;30.64;101234.47;5073242;28;20383;-77
2024/04/06 08:24:45;;;;;;;8.70;4.03;;;;;;;30.96;31.02;101235.66;5073262;28;20055;-76
2024/04/06 08:27:49;;;;;;;9.30;4.15;;;;;;;30.25;32.18;101227.69;5073257;28;20060;-76
2024/04/06 08:30:54;;;;;;;7.55;3.70;;;;;;;29.40;33.43;101231.94;5073343;28;20115;-76
2024/04/06 08:33:59;;;;;;;9.02;3.17;;;;;;;28.82;33.99;101229.75;5073269;28;20059;-75
2024/04/06 08:37:04;;;;;;;9.65;3.70;;;;;;;28.90;33.87;101228.59;5073236;28;20048;-76
2024/04/06 08:40:13;;;;;;;9.43;3.60;;;;;;;29.07;33.99;101226.00;5060955;28;20063;-75
2024/04/06 08:43:18;;;;;;;7.43;3.50;;;;;;;29.66;34.08;101225.97;5073243;28;20383;-77
2024/04/06 08:46:23;;;;;;;12.10;4.53;;;;;;;30.25;33.75;101225.75;5073175;28;20139;-76
2024/04/06 08:49:29;;;;;;;9.20;3.88;;;;;;;30.72;32.96;101225.69;5073328;28;20052;-77
2024/04/06 08:52:37;;;;;;;8.40;3.50;;;;;;;31.34;31.81;101227.50;5073444;28;20063;-76
2024/04/06 08:55:43;;;;;;;9.27;3.88;;;;;;;31.03;32.52;101229.97;5073182;28;20044;-76
2024/04/06 08:58:48;;;;;;;6.85;3.53;;;;;;;31.24;32.59;101227.31;5060985;28;20060;-75
2024/04/06 09:01:53;;;;;;;9.15;3.92;;;;;;;30.91;32.81;101227.25;5073053;28;20051;-75
2024/04/06 09:04:58;;;;;;;9.10;4.00;;;;;;;30.27;33.31;101225.50;5072737;28;20044;-76
2024/04/06 09:08:03;;;;;;;6.95;4.15;;;;;;;29.22;34.93;101227.31;5072800;28;20376;-76
2024/04/06 09:11:12;;;;;;;8.45;3.50;;;;;;;27.97;36.32;101227.06;5049148;28;20051;-76
2024/04/06 09:14:16;;;;;;;8.63;3.65;;;;;;;26.93;38.34;101218.50;5072830;28;20060;-75
2024/04/06 09:17:24;;;;;;;7.13;3.45;;;;;;;26.08;40.29;101219.59;5073038;28;20051;-75
2024/04/06 09:20:28;;;;;;;7.80;3.22;;;;;;;25.95;40.38;101224.28;5072800;28;20059;-74
2024/04/06 09:23:34;;;;;;;11.23;3.42;;;;;;;25.97;41.27;101216.66;5072891;28;20047;-77
2024/04/06 09:26:40;;;;;;;10.10;3.17;;;;;;;25.77;42.64;101222.19;5073035;28;20051;-76
2024/04/06 09:29:48;;;;;;;10.60;4.43;;;;;;;25.47;42.63;101216.25;5060362;28;20055;-76
2024/04/06 09:32:56;;;;;;;7.50;2.88;;;;;;;25.54;42.96;101219.00;5073255;28;20449;-77
2024/04/06 09:36:05;;;;;;;9.43;4.53;;;;;;;25.51;42.02;101222.16;5064026;28;20060;-76
2024/04/06 09:39:10;;;;;;;7.57;2.90;;;;;;;25.42;42.87;101218.75;5076105;28;20048;-77
2024/04/06 09:42:16;;;;;;;9.77;3.08;;;;;;;25.36;43.56;101210.47;5076280;28;20144;-77
2024/04/06 09:45:22;;;;;;;6.47;2.38;;;;;;;25.05;43.20;101208.34;5075961;28;20067;-76
2024/04/06 09:48:27;;;;;;;5.93;1.75;;;;;;;24.93;42.76;101204.50;5076193;28;20474;-77
2024/04/06 09:51:32;;;;;;;5.93;2.58;;;;;;;24.78;42.99;101206.56;5076251;28;20395;-76
2024/04/06 09:54:36;;;;;;;7.55;2.58;;;;;;;24.88;43.69;101202.38;5076014;28;20060;-75
2024/04/06 09:57:41;;;;;;;8.25;2.33;;;;;;;24.42;44.68;101206.81;5075528;28;20048;-74
2024/04/06 10:00:46;;;;;;;6.28;2.38;;;;;;;24.32;45.63;101200.88;5075719;28;20056;-76
2024/04/06 10:03:51;;;;;;;6.22;2.10;;;;;;;24.21;44.99;101191.31;5075570;28;20072;-75
2024/04/06 10:06:56;;;;;;;8.18;2.58;;;;;;;24.28;45.73;101188.59;5075725;28;20040;-75
2024/04/06 10:10:07;;;;;;;6.03;2.65;;;;;;;24.04;46.34;101184.44;5062785;28;20075;-76
2024/04/06 10:13:21;;;;;;;6.20;2.17;;;;;;;23.63;47.01;101194.44;5075218;28;20067;-75
2024/04/06 10:16:26;;;;;;;4.60;2.38;;;;;;;23.56;48.22;101199.03;5075668;28;20052;-76
2024/04/06 10:19:31;;;;;;;7.45;2.55;;;;;;;23.64;47.65;101191.53;5075436;28;20052;-74
2024/04/06 10:22:53;;;;;;;4.47;2.13;;;;;;;23.68;48.04;101191.97;5075348;28;20047;-77
2024/04/06 10:26:14;;;;;;;9.00;2.28;;;;;;;23.73;48.56;101184.00;5075240;28;20056;-76
2024/04/06 10:29:20;;;;;;;5.40;2.42;;;;;;;24.05;47.76;101179.78;5075460;28;20051;-75
2024/04/06 10:32:25;;;;;;;11.50;2.67;;;;;;;24.05;47.43;101177.06;5062423;28;20051;-76
2024/04/06 10:35:30;;;;;;;6.35;2.22;;;;;;;24.17;47.06;101176.28;5062594;28;20399;-75
2024/04/06 10:38:35;;;;;;;8.18;2.03;;;;;;;23.95;47.24;101172.75;5074857;28;20059;-76
2024/04/06 10:41:45;;;;;;;9.38;1.80;;;;;;;24.06;47.68;101173.25;5062197;28;20059;-76
2024/04/06 10:44:49;;;;;;;6.00;2.13;;;;;;;23.78;49.38;101176.88;5073408;28;20388;-75
2024/04/06 10:47:54;;;;;;;5.65;2.30;;;;;;;23.33;51.33;101173.75;5062516;28;20047;-76
2024/04/06 10:50:59;;;;;;;7.28;2.28;;;;;;;23.40;50.77;101167.31;5074832;28;20051;-76
2024/04/06 10:54:05;;;;;;;6.60;2.33;;;;;;;23.52;49.72;101175.81;5074375;28;20047;-76
2024/04/06 10:57:10;;;;;;;6.88;1.95;;;;;;;23.68;49.57;101159.06;5061933;28;20071;-74
2024/04/06 11:00:18;;;;;;;4.50;1.60;;;;;;;23.62;50.06;101159.88;5074012;28;20510;-74
2024/04/06 11:03:23;;;;;;;7.10;1.65;;;;;;;23.65;48.81;101160.31;5074116;28;20052;-75
2024/04/06 11:06:28;;;;;;;6.13;1.83;;;;;;;23.62;47.80;101152.50;5074725;28;20047;-74
2024/04/06 11:09:36;;;;;;;5.18;1.60;;;;;;;23.59;48.23;101146.56;5074142;28;20071;-74
2024/04/06 11:12:42;;;;;;;5.07;1.65;;;;;;;23.61;47.84;101148.06;5073922;28;20059;-74
2024/04/06 11:15:49;;;;;;;4.63;1.58;;;;;;;23.56;48.01;101139.59;5073569;28;20047;-73
2024/04/06 11:18:55;;;;;;;8.25;1.65;;;;;;;23.60;46.76;101138.13;5073810;28;20392;-74
2024/04/06 11:22:06;;;;;;;5.32;1.50;;;;;;;23.80;46.66;101135.56;5061791;28;20075;-74
2024/04/06 11:25:15;;;;;;;6.22;1.85;;;;;;;23.55;46.34;101124.22;5073938;28;20063;-76
2024/04/06 11:28:20;;;;;;;5.75;1.38;;;;;;;23.55;46.68;101132.44;5074240;28;20047;-73
2024/04/06 11:31:25;;;;;;;5.43;1.35;;;;;;;23.20;47.50;101123.28;5074236;28;20368;-76
2024/04/06 11:34:30;;;;;;;6.05;1.15;;;;;;;23.33;47.85;101114.31;5074346;28;20052;-74
2024/04/06 11:37:34;;;;;;;4.25;1.20;;;;;;;23.40;48.15;101112.50;5062017;28;20412;-73
2024/04/06 11:40:39;;;;;;;3.63;1.60;;;;;;;23.39;46.33;101119.00;5061229;28;20059;-76
2024/04/06 11:43:44;;;;;;;3.35;1.02;;;;;;;23.36;46.84;101118.56;5061603;28;20052;-75
2024/04/06 11:46:48;;;;;;;5.32;1.13;;;;;;;23.40;45.79;101120.72;5073658;28;20051;-76
2024/04/06 11:49:54;;;;;;;4.90;1.30;;;;;;;23.45;46.36;101120.13;5073598;28;20047;-77
2024/04/06 11:52:59;;;;;;;6.88;1.52;;;;;;;23.43;46.38;101112.06;5073515;28;20060;-76
2024/04/06 11:56:03;;;;;;;2.72;1.00;;;;;;;23.31;46.35;101105.41;5060771;28;20067;-74
2024/04/06 11:59:08;;;;;;;3.90;0.93;;;;;;;23.25;47.42;101098.00;5073578;28;20047;-77
2024/04/06 12:02:13;;;;;;;5.00;1.13;;;;;;;23.15;47.17;101092.88;5073033;28;20055;-76
2024/04/06 12:05:18;;;;;;;3.42;0.90;;;;;;;22.94;47.27;101100.25;5073332;28;20056;-77
2024/04/06 12:08:22;;;;;;;6.55;1.38;;;;;;;23.16;47.53;101090.97;5060758;28;20052;-75
2024/04/06 12:11:28;;;;;;;5.28;1.55;;;;;;;23.08;47.38;101086.50;5050772;28;20056;-76
2024/04/06 12:14:32;;;;;;;6.65;1.23;;;;;;;23.11;48.54;101090.72;5051364;28;20052;-76
2024/04/06 12:17:37;;;;;;;4.93;1.70;;;;;;;23.15;47.40;101089.28;5051004;28;20447;-76
2024/04/06 12:20:42;;;;;;;8.30;2.38;;;;;;;23.08;47.54;101083.78;5050638;28;20052;-75
2024/04/06 12:23:46;;;;;;;5.60;1.92;;;;;;;22.92;47.76;101094.97;5039527;28;20052;-76
2024/04/06 12:26:52;;;;;;;5.85;2.10;;;;;;;22.93;48.26;101083.00;5039792;28;20499;-75
2024/04/06 12:29:56;;;;;;;4.95;1.55;;;;;;;22.78;48.51;101081.38;5051164;28;20052;-76
2024/04/06 12:33:00;;;;;;;4.43;1.38;;;;;;;22.84;49.22;101075.13;5050971;28;20052;-76
2024/04/06 12:36:05;;;;;;;5.70;1.77;;;;;;;22.85;48.63;101072.19;5050960;28;20059;-76
2024/04/06 12:39:10;;;;;;;7.70;2.08;;;;;;;22.78;49.29;101071.28;5051173;28;20060;-74
2024/04/06 12:42:15;;;;;;;3.42;1.17;;;;;;;22.89;47.65;101073.47;5039407;28;20064;-76
2024/04/06 12:45:20;;;;;;;13.85;6.95;;;;;;;22.81;48.25;101067.31;5050588;28;20060;-76
2024/04/06 12:48:24;;;;;;;6.80;2.42;;;;;;;22.85;48.86;101052.16;5050977;28;20123;-77
2024/04/06 12:51:29;;;;;;;5.32;1.50;;;;;;;23.06;47.93;101055.72;5073045;28;20059;-77
2024/04/06 12:54:34;;;;;;;4.13;1.13;;;;;;;23.07;48.07;101056.56;5049346;28;20048;-76
2024/04/06 12:57:39;;;;;;;3.92;1.00;;;;;;;23.08;48.06;101058.25;5051693;28;20052;-75
2024/04/06 13:00:44;;;;;;;3.60;1.00;;;;;;;23.09;47.65;101048.97;5040473;28;20044;-75
2024/04/06 13:03:48;;;;;;;6.38;1.23;;;;;;;23.04;48.64;101040.53;5052716;28;20055;-75
2024/04/06 13:06:53;;;;;;;6.85;1.50;;;;;;;23.13;48.26;101045.66;5052898;28;20044;-75
2024/04/06 13:10:04;;;;;;;5.45;0.88;;;;;;;23.21;48.65;101041.91;5056601;28;20040;-75
2024/04/06 13:13:09;;;;;;;5.63;1.23;;;;;;;23.45;48.17;101035.16;5056815;28;20495;-75
2024/04/06 13:16:13;;;;;;;2.80;1.00;;;;;;;23.36;46.65;101028.97;5056610;28;20063;-75
2024/04/06 13:19:19;;;;;;;3.40;1.15;;;;;;;23.30;47.16;101024.28;5056661;28;20056;-75
2024/04/06 13:22:23;;;;;;;5.82;1.33;;;;;;;23.23;47.82;101020.66;5056192;28;20055;-75
2024/04/06 13:25:29;;;;;;;4.00;0.98;;;;;;;23.32;47.16;101016.72;5056001;28;20052;-75
2024/04/06 13:28:34;;;;;;;4.13;1.08;;;;;;;23.20;47.17;101018.31;5056313;28;20056;-76
2024/04/06 13:31:40;;;;;;;3.33;1.02;;;;;;;23.47;48.05;101019.34;5072667;28;20056;-76
2024/04/06 13:34:52;;;;;;;4.50;1.10;;;;;;;23.41;47.23;101010.03;5075796;28;20395;-76
2024/04/06 13:37:57;;;;;;;6.07;0.93;;;;;;;23.37;47.33;101007.91;5075768;28;20052;-77
2024/04/06 13:41:02;;;;;;;4.65;0.85;;;;;;;23.40;47.43;101011.13;5074347;28;20051;-76
2024/04/06 13:44:07;;;;;;;3.28;0.80;;;;;;;23.36;47.79;100996.09;5075854;28;20071;-76
2024/04/06 13:47:11;;;;;;;5.68;1.13;;;;;;;23.55;48.10;100998.13;5075708;28;20051;-76
2024/04/06 13:50:16;;;;;;;4.68;1.15;;;;;;;23.55;47.79;100994.53;5075672;28;20052;-77
2024/04/06 13:53:21;;;;;;;4.68;1.20;;;;;;;23.52;47.00;100993.03;5075709;28;20067;-74
2024/04/06 13:56:26;;;;;;;3.85;1.15;;;;;;;23.55;47.04;100997.28;5075644;28;20059;-76
2024/04/06 13:59:31;;;;;;;4.75;0.95;;;;;;;23.54;48.03;100996.41;5074697;28;20060;-75
2024/04/06 14:02:36;;;;;;;4.55;1.10;;;;;;;23.52;47.81;101000.41;5075405;28;20060;-76
2024/04/06 14:05:41;;;;;;;5.50;1.08;;;;;;;23.60;49.21;100995.59;5075523;28;20073;-75
2024/04/06 14:08:46;;;;;;;3.17;1.02;;;;;;;23.67;47.58;100998.38;5076011;28;20067;-73
2024/04/06 14:11:55;;;;;;;6.18;1.40;;;;;;;23.73;47.63;100998.41;5075534;28;20052;-75
2024/04/06 14:15:00;;;;;;;5.25;1.45;;;;;;;23.67;47.08;100987.41;5075431;28;20111;-75
2024/04/06 14:18:05;;;;;;;3.50;1.08;;;;;;;23.62;47.31;100985.28;5074528;28;20498;-77
2024/04/06 14:21:10;;;;;;;2.20;0.77;;;;;;;23.69;47.07;100980.69;5075392;28;20075;-74